sensor_id;sensor_type;location;lat;lon;timestamp;P1;durP1;ratioP1;P2;durP2;ratioP2
13720;SDS011;6932;51.438;5.470;2023-02-24T00:01:49;11.17;;;3.23;;
13720;SDS011;6932;51.438;5.470;2023-02-24T00:04:25;12.97;;;3.30;;
13720;SDS011;6932;51.438;5.470;2023-02-24T00:06:53;10.43;;;3.17;;
13720;SDS011;6932;51.438;5.470;2023-02-24T00:09:20;10.80;;;3.40;;
13720;SDS011;6932;51.438;5.470;2023-02-24T00:12:01;15.33;;;3.40;;
13720;SDS011;6932;51.438;5.470;2023-02-24T00:14:34;13.20;;;3.30;;
13720;SDS011;6932;51.438;5.470;2023-02-24T00:17:02;12.50;;;3.63;;
13720;SDS011;6932;51.438;5.470;2023-02-24T00:19:28;10.37;;;3.20;;
13720;SDS011;6932;51.438;5.470;2023-02-24T00:21:56;12.63;;;4.10;;
13720;SDS011;6932;51.438;5.470;2023-02-24T00:24:23;11.43;;;3.63;;
13720;SDS011;6932;51.438;5.470;2023-02-24T00:26:51;11.10;;;3.70;;
13720;SDS011;6932;51.438;5.470;2023-02-24T00:29:19;14.80;;;3.80;;
13720;SDS011;6932;51.438;5.470;2023-02-24T00:31:45;11.33;;;3.30;;
13720;SDS011;6932;51.438;5.470;2023-02-24T00:34:20;12.13;;;3.50;;
13720;SDS011;6932;51.438;5.470;2023-02-24T00:36:47;13.57;;;3.60;;
13720;SDS011;6932;51.438;5.470;2023-02-24T00:39:13;14.33;;;3.63;;
13720;SDS011;6932;51.438;5.470;2023-02-24T00:41:40;11.07;;;3.60;;
13720;SDS011;6932;51.438;5.470;2023-02-24T00:44:09;12.70;;;3.47;;
13720;SDS011;6932;51.438;5.470;2023-02-24T00:46:38;13.83;;;3.20;;
13720;SDS011;6932;51.438;5.470;2023-02-24T00:49:11;11.60;;;3.77;;
13720;SDS011;6932;51.438;5.470;2023-02-24T00:51:45;11.30;;;3.43;;
13720;SDS011;6932;51.438;5.470;2023-02-24T00:54:13;12.73;;;3.40;;
13720;SDS011;6932;51.438;5.470;2023-02-24T00:56:41;10.43;;;3.43;;
13720;SDS011;6932;51.438;5.470;2023-02-24T00:59:09;12.93;;;3.70;;
13720;SDS011;6932;51.438;5.470;2023-02-24T01:01:37;10.77;;;3.37;;
13720;SDS011;6932;51.438;5.470;2023-02-24T01:04:04;12.47;;;3.50;;
13720;SDS011;6932;51.438;5.470;2023-02-24T01:06:35;12.37;;;3.90;;
13720;SDS011;6932;51.438;5.470;2023-02-24T01:09:14;13.87;;;3.30;;
13720;SDS011;6932;51.438;5.470;2023-02-24T01:11:45;16.73;;;4.00;;
13720;SDS011;6932;51.438;5.470;2023-02-24T01:14:45;12.43;;;3.50;;
13720;SDS011;6932;51.438;5.470;2023-02-24T01:17:14;9.97;;;3.13;;
13720;SDS011;6932;51.438;5.470;2023-02-24T01:19:44;11.33;;;3.57;;
13720;SDS011;6932;51.438;5.470;2023-02-24T01:22:13;13.23;;;3.33;;
13720;SDS011;6932;51.438;5.470;2023-02-24T01:24:41;9.23;;;2.87;;
13720;SDS011;6932;51.438;5.470;2023-02-24T01:27:09;8.87;;;2.90;;
13720;SDS011;6932;51.438;5.470;2023-02-24T01:29:37;13.30;;;3.37;;
13720;SDS011;6932;51.438;5.470;2023-02-24T01:32:03;10.23;;;3.30;;
13720;SDS011;6932;51.438;5.470;2023-02-24T01:34:31;9.90;;;3.03;;
13720;SDS011;6932;51.438;5.470;2023-02-24T01:36:59;10.20;;;2.90;;
13720;SDS011;6932;51.438;5.470;2023-02-24T01:39:25;11.13;;;2.80;;
13720;SDS011;6932;51.438;5.470;2023-02-24T01:41:51;8.70;;;2.70;;
13720;SDS011;6932;51.438;5.470;2023-02-24T01:46:52;8.93;;;2.40;;
13720;SDS011;6932;51.438;5.470;2023-02-24T01:49:19;10.70;;;3.10;;
13720;SDS011;6932;51.438;5.470;2023-02-24T01:51:56;10.73;;;3.07;;
13720;SDS011;6932;51.438;5.470;2023-02-24T01:54:49;7.67;;;2.60;;
13720;SDS011;6932;51.438;5.470;2023-02-24T01:57:20;8.90;;;2.43;;
13720;SDS011;6932;51.438;5.470;2023-02-24T01:59:53;10.37;;;2.70;;
13720;SDS011;6932;51.438;5.470;2023-02-24T02:02:35;10.77;;;2.67;;
13720;SDS011;6932;51.438;5.470;2023-02-24T02:05:03;10.10;;;2.70;;
13720;SDS011;6932;51.438;5.470;2023-02-24T02:07:33;10.63;;;2.50;;
13720;SDS011;6932;51.438;5.470;2023-02-24T02:10:03;9.93;;;2.50;;
13720;SDS011;6932;51.438;5.470;2023-02-24T02:12:33;9.27;;;2.50;;
13720;SDS011;6932;51.438;5.470;2023-02-24T02:15:03;9.63;;;2.47;;
13720;SDS011;6932;51.438;5.470;2023-02-24T02:27:00;7.50;;;2.20;;
13720;SDS011;6932;51.438;5.470;2023-02-24T02:40:47;11.03;;;2.97;;
13720;SDS011;6932;51.438;5.470;2023-02-24T02:46:13;8.33;;;2.37;;
13720;SDS011;6932;51.438;5.470;2023-02-24T02:48:58;8.33;;;2.10;;
13720;SDS011;6932;51.438;5.470;2023-02-24T02:52:00;8.87;;;2.67;;
13720;SDS011;6932;51.438;5.470;2023-02-24T02:54:47;7.27;;;2.20;;
13720;SDS011;6932;51.438;5.470;2023-02-24T02:57:23;8.93;;;2.50;;
13720;SDS011;6932;51.438;5.470;2023-02-24T02:59:56;9.20;;;2.30;;
13720;SDS011;6932;51.438;5.470;2023-02-24T03:02:38;6.77;;;2.20;;
13720;SDS011;6932;51.438;5.470;2023-02-24T03:05:12;7.40;;;2.20;;
13720;SDS011;6932;51.438;5.470;2023-02-24T03:07:47;6.23;;;2.30;;
13720;SDS011;6932;51.438;5.470;2023-02-24T03:10:27;7.37;;;2.40;;
13720;SDS011;6932;51.438;5.470;2023-02-24T03:12:58;10.00;;;2.97;;
13720;SDS011;6932;51.438;5.470;2023-02-24T03:15:30;7.80;;;2.43;;
13720;SDS011;6932;51.438;5.470;2023-02-24T03:18:08;9.93;;;2.73;;
13720;SDS011;6932;51.438;5.470;2023-02-24T03:20:53;7.03;;;2.40;;
13720;SDS011;6932;51.438;5.470;2023-02-24T03:23:32;5.23;;;2.40;;
13720;SDS011;6932;51.438;5.470;2023-02-24T03:31:40;9.23;;;2.60;;
13720;SDS011;6932;51.438;5.470;2023-02-24T03:34:18;9.70;;;2.67;;
13720;SDS011;6932;51.438;5.470;2023-02-24T03:36:54;9.63;;;2.70;;
13720;SDS011;6932;51.438;5.470;2023-02-24T03:39:21;8.20;;;2.77;;
13720;SDS011;6932;51.438;5.470;2023-02-24T03:41:59;9.73;;;2.67;;
13720;SDS011;6932;51.438;5.470;2023-02-24T03:44:41;8.37;;;2.30;;
13720;SDS011;6932;51.438;5.470;2023-02-24T03:47:09;9.53;;;2.87;;
13720;SDS011;6932;51.438;5.470;2023-02-24T03:49:36;9.53;;;2.87;;
13720;SDS011;6932;51.438;5.470;2023-02-24T03:52:07;9.70;;;2.83;;
13720;SDS011;6932;51.438;5.470;2023-02-24T03:57:54;9.97;;;2.40;;
13720;SDS011;6932;51.438;5.470;2023-02-24T04:00:39;6.53;;;2.40;;
13720;SDS011;6932;51.438;5.470;2023-02-24T04:03:34;7.67;;;2.20;;
13720;SDS011;6932;51.438;5.470;2023-02-24T04:06:35;7.30;;;2.20;;
13720;SDS011;6932;51.438;5.470;2023-02-24T04:09:24;6.63;;;2.10;;
13720;SDS011;6932;51.438;5.470;2023-02-24T04:14:51;8.50;;;2.60;;
13720;SDS011;6932;51.438;5.470;2023-02-24T04:17:51;8.30;;;2.43;;
13720;SDS011;6932;51.438;5.470;2023-02-24T04:20:23;7.23;;;2.40;;
13720;SDS011;6932;51.438;5.470;2023-02-24T04:22:56;8.97;;;2.60;;
13720;SDS011;6932;51.438;5.470;2023-02-24T04:25:32;5.93;;;2.17;;
13720;SDS011;6932;51.438;5.470;2023-02-24T04:28:00;9.80;;;2.47;;
13720;SDS011;6932;51.438;5.470;2023-02-24T04:30:29;9.90;;;2.23;;
13720;SDS011;6932;51.438;5.470;2023-02-24T04:33:00;8.53;;;2.40;;
13720;SDS011;6932;51.438;5.470;2023-02-24T04:35:26;8.47;;;2.43;;
13720;SDS011;6932;51.438;5.470;2023-02-24T04:37:52;8.93;;;2.20;;
13720;SDS011;6932;51.438;5.470;2023-02-24T04:40:19;8.03;;;2.73;;
13720;SDS011;6932;51.438;5.470;2023-02-24T04:42:47;7.30;;;2.60;;
13720;SDS011;6932;51.438;5.470;2023-02-24T04:45:17;7.07;;;2.23;;
13720;SDS011;6932;51.438;5.470;2023-02-24T04:47:50;5.23;;;2.37;;
13720;SDS011;6932;51.438;5.470;2023-02-24T04:50:25;7.70;;;2.30;;
13720;SDS011;6932;51.438;5.470;2023-02-24T04:52:54;8.47;;;2.37;;
13720;SDS011;6932;51.438;5.470;2023-02-24T04:55:25;10.23;;;2.70;;
13720;SDS011;6932;51.438;5.470;2023-02-24T04:57:57;8.03;;;2.00;;
13720;SDS011;6932;51.438;5.470;2023-02-24T05:00:25;8.33;;;2.30;;
13720;SDS011;6932;51.438;5.470;2023-02-24T05:02:57;9.37;;;2.60;;
13720;SDS011;6932;51.438;5.470;2023-02-24T05:05:25;8.37;;;2.60;;
13720;SDS011;6932;51.438;5.470;2023-02-24T05:07:53;6.77;;;2.20;;
13720;SDS011;6932;51.438;5.470;2023-02-24T05:10:21;9.70;;;2.70;;
13720;SDS011;6932;51.438;5.470;2023-02-24T05:12:55;6.90;;;2.50;;
13720;SDS011;6932;51.438;5.470;2023-02-24T05:15:28;6.77;;;2.53;;
13720;SDS011;6932;51.438;5.470;2023-02-24T05:20:35;8.07;;;2.40;;
13720;SDS011;6932;51.438;5.470;2023-02-24T05:23:25;10.30;;;2.77;;
13720;SDS011;6932;51.438;5.470;2023-02-24T05:26:00;8.27;;;2.67;;
13720;SDS011;6932;51.438;5.470;2023-02-24T05:28:32;7.50;;;2.47;;
13720;SDS011;6932;51.438;5.470;2023-02-24T05:31:11;8.13;;;2.70;;
13720;SDS011;6932;51.438;5.470;2023-02-24T05:33:44;9.87;;;2.70;;
13720;SDS011;6932;51.438;5.470;2023-02-24T05:36:14;8.47;;;2.60;;
13720;SDS011;6932;51.438;5.470;2023-02-24T05:38:43;7.53;;;2.40;;
13720;SDS011;6932;51.438;5.470;2023-02-24T05:41:19;8.07;;;2.77;;
13720;SDS011;6932;51.438;5.470;2023-02-24T05:43:47;11.50;;;3.43;;
13720;SDS011;6932;51.438;5.470;2023-02-24T05:46:24;10.27;;;2.80;;
13720;SDS011;6932;51.438;5.470;2023-02-24T05:48:53;8.63;;;2.90;;
13720;SDS011;6932;51.438;5.470;2023-02-24T05:51:23;8.67;;;2.60;;
13720;SDS011;6932;51.438;5.470;2023-02-24T05:53:51;7.80;;;2.53;;
13720;SDS011;6932;51.438;5.470;2023-02-24T05:56:20;8.87;;;2.83;;
13720;SDS011;6932;51.438;5.470;2023-02-24T05:58:48;8.53;;;2.73;;
13720;SDS011;6932;51.438;5.470;2023-02-24T06:01:25;9.67;;;2.80;;
13720;SDS011;6932;51.438;5.470;2023-02-24T06:03:58;6.27;;;2.60;;
13720;SDS011;6932;51.438;5.470;2023-02-24T06:06:36;7.50;;;2.70;;
13720;SDS011;6932;51.438;5.470;2023-02-24T06:09:12;8.57;;;3.00;;
13720;SDS011;6932;51.438;5.470;2023-02-24T06:11:39;9.17;;;2.90;;
13720;SDS011;6932;51.438;5.470;2023-02-24T06:14:06;6.37;;;2.70;;
13720;SDS011;6932;51.438;5.470;2023-02-24T06:16:34;6.53;;;2.33;;
13720;SDS011;6932;51.438;5.470;2023-02-24T06:19:03;10.03;;;2.80;;
13720;SDS011;6932;51.438;5.470;2023-02-24T06:21:32;6.77;;;2.40;;
13720;SDS011;6932;51.438;5.470;2023-02-24T06:24:00;7.80;;;2.50;;
13720;SDS011;6932;51.438;5.470;2023-02-24T06:26:27;10.37;;;2.70;;
13720;SDS011;6932;51.438;5.470;2023-02-24T06:28:57;8.23;;;2.43;;
13720;SDS011;6932;51.438;5.470;2023-02-24T06:31:24;8.07;;;2.60;;
13720;SDS011;6932;51.438;5.470;2023-02-24T06:33:51;7.77;;;2.43;;
13720;SDS011;6932;51.438;5.470;2023-02-24T06:36:18;11.03;;;2.73;;
13720;SDS011;6932;51.438;5.470;2023-02-24T06:38:44;7.63;;;2.53;;
13720;SDS011;6932;51.438;5.470;2023-02-24T06:41:10;8.50;;;2.57;;
13720;SDS011;6932;51.438;5.470;2023-02-24T06:43:37;10.00;;;2.93;;
13720;SDS011;6932;51.438;5.470;2023-02-24T06:46:07;9.03;;;2.70;;
13720;SDS011;6932;51.438;5.470;2023-02-24T06:48:35;8.17;;;2.60;;
13720;SDS011;6932;51.438;5.470;2023-02-24T06:51:11;10.90;;;2.60;;
13720;SDS011;6932;51.438;5.470;2023-02-24T06:53:40;6.63;;;2.47;;
13720;SDS011;6932;51.438;5.470;2023-02-24T06:58:44;8.40;;;2.47;;
13720;SDS011;6932;51.438;5.470;2023-02-24T07:01:20;8.90;;;2.77;;
13720;SDS011;6932;51.438;5.470;2023-02-24T07:03:49;6.77;;;2.40;;
13720;SDS011;6932;51.438;5.470;2023-02-24T07:06:33;7.13;;;2.30;;
13720;SDS011;6932;51.438;5.470;2023-02-24T07:09:06;8.17;;;2.87;;
13720;SDS011;6932;51.438;5.470;2023-02-24T07:11:38;9.63;;;3.40;;
13720;SDS011;6932;51.438;5.470;2023-02-24T07:14:07;8.80;;;2.80;;
13720;SDS011;6932;51.438;5.470;2023-02-24T07:16:35;8.23;;;2.50;;
13720;SDS011;6932;51.438;5.470;2023-02-24T07:19:05;5.47;;;2.30;;
13720;SDS011;6932;51.438;5.470;2023-02-24T07:21:38;7.73;;;2.53;;
13720;SDS011;6932;51.438;5.470;2023-02-24T07:24:19;7.27;;;2.40;;
13720;SDS011;6932;51.438;5.470;2023-02-24T07:26:56;10.00;;;2.33;;
13720;SDS011;6932;51.438;5.470;2023-02-24T07:29:25;7.77;;;2.40;;
13720;SDS011;6932;51.438;5.470;2023-02-24T07:31:53;7.53;;;2.17;;
13720;SDS011;6932;51.438;5.470;2023-02-24T07:34:21;9.13;;;2.50;;
13720;SDS011;6932;51.438;5.470;2023-02-24T07:36:51;11.23;;;2.90;;
13720;SDS011;6932;51.438;5.470;2023-02-24T07:39:19;9.87;;;2.60;;
13720;SDS011;6932;51.438;5.470;2023-02-24T07:41:50;10.13;;;2.60;;
13720;SDS011;6932;51.438;5.470;2023-02-24T07:44:21;9.83;;;2.57;;
13720;SDS011;6932;51.438;5.470;2023-02-24T07:46:48;9.30;;;2.40;;
13720;SDS011;6932;51.438;5.470;2023-02-24T07:49:16;8.07;;;2.50;;
13720;SDS011;6932;51.438;5.470;2023-02-24T07:51:45;9.73;;;2.60;;
13720;SDS011;6932;51.438;5.470;2023-02-24T07:54:16;8.70;;;2.80;;
13720;SDS011;6932;51.438;5.470;2023-02-24T07:56:47;7.53;;;2.47;;
13720;SDS011;6932;51.438;5.470;2023-02-24T07:59:20;9.27;;;2.30;;
13720;SDS011;6932;51.438;5.470;2023-02-24T08:01:52;6.57;;;2.30;;
13720;SDS011;6932;51.438;5.470;2023-02-24T08:04:20;8.67;;;2.50;;
13720;SDS011;6932;51.438;5.470;2023-02-24T08:06:53;6.43;;;2.47;;
13720;SDS011;6932;51.438;5.470;2023-02-24T08:09:23;8.70;;;3.10;;
13720;SDS011;6932;51.438;5.470;2023-02-24T08:12:16;7.03;;;2.70;;
13720;SDS011;6932;51.438;5.470;2023-02-24T08:14:46;8.90;;;2.43;;
13720;SDS011;6932;51.438;5.470;2023-02-24T08:17:16;8.07;;;2.50;;
13720;SDS011;6932;51.438;5.470;2023-02-24T08:19:48;11.03;;;2.63;;
13720;SDS011;6932;51.438;5.470;2023-02-24T08:22:36;7.23;;;2.20;;
13720;SDS011;6932;51.438;5.470;2023-02-24T08:25:08;8.10;;;2.10;;
13720;SDS011;6932;51.438;5.470;2023-02-24T08:27:42;9.73;;;2.60;;
13720;SDS011;6932;51.438;5.470;2023-02-24T08:30:10;8.30;;;2.17;;
13720;SDS011;6932;51.438;5.470;2023-02-24T08:32:52;7.97;;;2.40;;
13720;SDS011;6932;51.438;5.470;2023-02-24T08:35:28;8.80;;;2.57;;
13720;SDS011;6932;51.438;5.470;2023-02-24T08:38:01;5.90;;;2.20;;
13720;SDS011;6932;51.438;5.470;2023-02-24T08:40:44;7.93;;;2.33;;
13720;SDS011;6932;51.438;5.470;2023-02-24T08:43:36;8.40;;;2.40;;
13720;SDS011;6932;51.438;5.470;2023-02-24T08:46:05;7.70;;;2.40;;
13720;SDS011;6932;51.438;5.470;2023-02-24T08:48:38;9.90;;;2.57;;
13720;SDS011;6932;51.438;5.470;2023-02-24T08:51:08;7.40;;;2.13;;
13720;SDS011;6932;51.438;5.470;2023-02-24T08:53:59;6.90;;;2.30;;
13720;SDS011;6932;51.438;5.470;2023-02-24T08:56:35;7.73;;;2.30;;
13720;SDS011;6932;51.438;5.470;2023-02-24T08:59:07;6.37;;;2.13;;
13720;SDS011;6932;51.438;5.470;2023-02-24T09:01:53;8.23;;;2.30;;
13720;SDS011;6932;51.438;5.470;2023-02-24T09:04:45;7.97;;;2.30;;
13720;SDS011;6932;51.438;5.470;2023-02-24T09:07:19;7.20;;;2.10;;
13720;SDS011;6932;51.438;5.470;2023-02-24T09:09:59;11.57;;;2.43;;
13720;SDS011;6932;51.438;5.470;2023-02-24T09:12:35;8.30;;;2.60;;
13720;SDS011;6932;51.438;5.470;2023-02-24T09:15:05;7.70;;;2.40;;
13720;SDS011;6932;51.438;5.470;2023-02-24T09:17:35;6.20;;;2.20;;
13720;SDS011;6932;51.438;5.470;2023-02-24T09:20:08;8.37;;;2.43;;
13720;SDS011;6932;51.438;5.470;2023-02-24T09:22:57;6.47;;;1.90;;
13720;SDS011;6932;51.438;5.470;2023-02-24T09:25:24;9.53;;;2.37;;
13720;SDS011;6932;51.438;5.470;2023-02-24T09:30:48;8.23;;;2.53;;
13720;SDS011;6932;51.438;5.470;2023-02-24T09:33:39;9.93;;;2.60;;
13720;SDS011;6932;51.438;5.470;2023-02-24T09:38:55;7.43;;;2.43;;
13720;SDS011;6932;51.438;5.470;2023-02-24T09:45:01;10.97;;;2.80;;
13720;SDS011;6932;51.438;5.470;2023-02-24T09:47:38;8.87;;;2.93;;
13720;SDS011;6932;51.438;5.470;2023-02-24T09:53:10;7.23;;;2.40;;
13720;SDS011;6932;51.438;5.470;2023-02-24T09:55:48;7.93;;;2.20;;
13720;SDS011;6932;51.438;5.470;2023-02-24T10:01:45;8.70;;;2.80;;
13720;SDS011;6932;51.438;5.470;2023-02-24T10:07:32;6.17;;;2.20;;
13720;SDS011;6932;51.438;5.470;2023-02-24T10:15:54;7.07;;;2.57;;
13720;SDS011;6932;51.438;5.470;2023-02-24T10:26:57;6.83;;;2.13;;
13720;SDS011;6932;51.438;5.470;2023-02-24T10:29:51;8.07;;;2.53;;
13720;SDS011;6932;51.438;5.470;2023-02-24T10:32:56;8.73;;;2.70;;
13720;SDS011;6932;51.438;5.470;2023-02-24T10:35:29;9.60;;;2.43;;
13720;SDS011;6932;51.438;5.470;2023-02-24T10:37:58;8.00;;;2.90;;
13720;SDS011;6932;51.438;5.470;2023-02-24T10:40:32;8.47;;;2.40;;
13720;SDS011;6932;51.438;5.470;2023-02-24T10:43:14;6.47;;;2.20;;
13720;SDS011;6932;51.438;5.470;2023-02-24T10:45:54;7.00;;;2.73;;
13720;SDS011;6932;51.438;5.470;2023-02-24T10:48:41;10.47;;;2.70;;
13720;SDS011;6932;51.438;5.470;2023-02-24T10:51:24;9.03;;;2.40;;
13720;SDS011;6932;51.438;5.470;2023-02-24T10:56:57;7.00;;;2.50;;
13720;SDS011;6932;51.438;5.470;2023-02-24T11:02:50;6.77;;;2.40;;
13720;SDS011;6932;51.438;5.470;2023-02-24T11:05:33;7.60;;;2.50;;
13720;SDS011;6932;51.438;5.470;2023-02-24T11:08:29;9.53;;;2.50;;
13720;SDS011;6932;51.438;5.470;2023-02-24T11:13:49;8.13;;;2.50;;
13720;SDS011;6932;51.438;5.470;2023-02-24T11:16:44;10.80;;;3.50;;
13720;SDS011;6932;51.438;5.470;2023-02-24T11:19:36;5.43;;;2.83;;
13720;SDS011;6932;51.438;5.470;2023-02-24T11:22:12;8.97;;;2.60;;
13720;SDS011;6932;51.438;5.470;2023-02-24T11:24:44;10.60;;;3.33;;
13720;SDS011;6932;51.438;5.470;2023-02-24T11:27:11;9.83;;;3.00;;
13720;SDS011;6932;51.438;5.470;2023-02-24T11:29:43;8.20;;;2.60;;
13720;SDS011;6932;51.438;5.470;2023-02-24T11:32:46;11.20;;;2.80;;
13720;SDS011;6932;51.438;5.470;2023-02-24T11:35:32;8.00;;;3.00;;
13720;SDS011;6932;51.438;5.470;2023-02-24T11:40:55;8.87;;;2.63;;
13720;SDS011;6932;51.438;5.470;2023-02-24T11:43:35;7.60;;;3.10;;
13720;SDS011;6932;51.438;5.470;2023-02-24T11:46:16;8.27;;;2.73;;
13720;SDS011;6932;51.438;5.470;2023-02-24T11:48:53;6.77;;;3.00;;
13720;SDS011;6932;51.438;5.470;2023-02-24T11:51:25;9.27;;;3.30;;
13720;SDS011;6932;51.438;5.470;2023-02-24T11:54:03;8.13;;;2.93;;
13720;SDS011;6932;51.438;5.470;2023-02-24T11:56:37;9.20;;;3.57;;
13720;SDS011;6932;51.438;5.470;2023-02-24T11:59:34;7.20;;;3.30;;
13720;SDS011;6932;51.438;5.470;2023-02-24T12:02:21;10.47;;;3.50;;
13720;SDS011;6932;51.438;5.470;2023-02-24T12:05:15;8.27;;;3.20;;
13720;SDS011;6932;51.438;5.470;2023-02-24T12:10:22;8.43;;;3.60;;
13720;SDS011;6932;51.438;5.470;2023-02-24T12:16:09;10.53;;;3.67;;
13720;SDS011;6932;51.438;5.470;2023-02-24T12:19:27;9.13;;;3.50;;
13720;SDS011;6932;51.438;5.470;2023-02-24T12:22:14;8.30;;;3.47;;
13720;SDS011;6932;51.438;5.470;2023-02-24T12:24:41;10.47;;;3.87;;
13720;SDS011;6932;51.438;5.470;2023-02-24T12:33:15;8.13;;;3.60;;
13720;SDS011;6932;51.438;5.470;2023-02-24T12:39:14;8.90;;;3.27;;
13720;SDS011;6932;51.438;5.470;2023-02-24T12:42:11;8.50;;;3.10;;
13720;SDS011;6932;51.438;5.470;2023-02-24T12:51:17;9.07;;;3.73;;
13720;SDS011;6932;51.438;5.470;2023-02-24T12:54:11;7.67;;;3.57;;
13720;SDS011;6932;51.438;5.470;2023-02-24T12:59:52;8.17;;;3.77;;
13720;SDS011;6932;51.438;5.470;2023-02-24T13:02:33;8.87;;;3.60;;
13720;SDS011;6932;51.438;5.470;2023-02-24T13:05:31;8.47;;;3.50;;
13720;SDS011;6932;51.438;5.470;2023-02-24T13:08:11;8.30;;;3.90;;
13720;SDS011;6932;51.438;5.470;2023-02-24T13:17:29;6.93;;;3.97;;
13720;SDS011;6932;51.438;5.470;2023-02-24T13:19:53;8.77;;;3.83;;
13720;SDS011;6932;51.438;5.470;2023-02-24T13:24:58;6.13;;;3.60;;
13720;SDS011;6932;51.438;5.470;2023-02-24T13:27:35;7.30;;;3.80;;
13720;SDS011;6932;51.438;5.470;2023-02-24T13:32:37;6.47;;;3.70;;
13720;SDS011;6932;51.438;5.470;2023-02-24T13:37:41;6.50;;;3.50;;
13720;SDS011;6932;51.438;5.470;2023-02-24T13:42:42;6.73;;;3.40;;
13720;SDS011;6932;51.438;5.470;2023-02-24T13:56:56;7.27;;;3.63;;
13720;SDS011;6932;51.438;5.470;2023-02-24T14:02:34;6.23;;;3.30;;
13720;SDS011;6932;51.438;5.470;2023-02-24T14:05:08;7.13;;;3.47;;
13720;SDS011;6932;51.438;5.470;2023-02-24T14:07:45;8.07;;;3.77;;
13720;SDS011;6932;51.438;5.470;2023-02-24T14:10:16;8.50;;;3.80;;
13720;SDS011;6932;51.438;5.470;2023-02-24T14:12:44;8.60;;;3.10;;
13720;SDS011;6932;51.438;5.470;2023-02-24T14:15:17;7.23;;;3.20;;
13720;SDS011;6932;51.438;5.470;2023-02-24T14:17:59;8.80;;;3.67;;
13720;SDS011;6932;51.438;5.470;2023-02-24T14:20:32;6.83;;;3.20;;
13720;SDS011;6932;51.438;5.470;2023-02-24T14:23:13;7.57;;;3.33;;
13720;SDS011;6932;51.438;5.470;2023-02-24T14:25:52;6.70;;;3.33;;
13720;SDS011;6932;51.438;5.470;2023-02-24T14:28:23;8.17;;;3.37;;
13720;SDS011;6932;51.438;5.470;2023-02-24T14:30:58;7.90;;;3.47;;
13720;SDS011;6932;51.438;5.470;2023-02-24T14:33:34;5.73;;;3.10;;
13720;SDS011;6932;51.438;5.470;2023-02-24T14:36:03;6.77;;;3.13;;
13720;SDS011;6932;51.438;5.470;2023-02-24T14:38:42;5.70;;;3.13;;
13720;SDS011;6932;51.438;5.470;2023-02-24T14:41:19;6.60;;;3.30;;
13720;SDS011;6932;51.438;5.470;2023-02-24T14:43:51;7.53;;;3.63;;
13720;SDS011;6932;51.438;5.470;2023-02-24T14:46:18;6.53;;;3.30;;
13720;SDS011;6932;51.438;5.470;2023-02-24T14:48:44;7.10;;;3.70;;
13720;SDS011;6932;51.438;5.470;2023-02-24T14:54:20;7.77;;;4.00;;
13720;SDS011;6932;51.438;5.470;2023-02-24T14:57:12;6.93;;;3.77;;
13720;SDS011;6932;51.438;5.470;2023-02-24T14:59:53;10.37;;;3.90;;
13720;SDS011;6932;51.438;5.470;2023-02-24T15:02:30;7.37;;;3.37;;
13720;SDS011;6932;51.438;5.470;2023-02-24T15:04:57;7.07;;;3.27;;
13720;SDS011;6932;51.438;5.470;2023-02-24T15:07:30;5.37;;;3.27;;
13720;SDS011;6932;51.438;5.470;2023-02-24T15:09:59;6.20;;;3.40;;
13720;SDS011;6932;51.438;5.470;2023-02-24T15:12:42;7.30;;;3.67;;
13720;SDS011;6932;51.438;5.470;2023-02-24T15:15:21;6.73;;;3.30;;
13720;SDS011;6932;51.438;5.470;2023-02-24T15:17:55;5.90;;;3.40;;
13720;SDS011;6932;51.438;5.470;2023-02-24T15:22:55;7.37;;;3.90;;
13720;SDS011;6932;51.438;5.470;2023-02-24T15:25:39;6.67;;;3.83;;
13720;SDS011;6932;51.438;5.470;2023-02-24T15:31:17;7.93;;;4.10;;
13720;SDS011;6932;51.438;5.470;2023-02-24T15:33:52;9.47;;;4.77;;
13720;SDS011;6932;51.438;5.470;2023-02-24T15:36:23;8.67;;;4.10;;
13720;SDS011;6932;51.438;5.470;2023-02-24T15:39:03;6.93;;;4.20;;
13720;SDS011;6932;51.438;5.470;2023-02-24T15:41:40;8.33;;;4.23;;
13720;SDS011;6932;51.438;5.470;2023-02-24T15:46:57;8.67;;;4.03;;
13720;SDS011;6932;51.438;5.470;2023-02-24T15:49:25;8.47;;;2.97;;
13720;SDS011;6932;51.438;5.470;2023-02-24T15:51:51;9.07;;;2.30;;
13720;SDS011;6932;51.438;5.470;2023-02-24T15:56:55;8.60;;;2.30;;
13720;SDS011;6932;51.438;5.470;2023-02-24T15:59:23;5.60;;;1.90;;
13720;SDS011;6932;51.438;5.470;2023-02-24T16:01:49;9.50;;;1.97;;
13720;SDS011;6932;51.438;5.470;2023-02-24T16:04:18;7.33;;;2.00;;
13720;SDS011;6932;51.438;5.470;2023-02-24T16:06:46;6.27;;;2.20;;
13720;SDS011;6932;51.438;5.470;2023-02-24T16:09:37;8.40;;;1.93;;
13720;SDS011;6932;51.438;5.470;2023-02-24T16:12:06;9.67;;;2.70;;
13720;SDS011;6932;51.438;5.470;2023-02-24T16:14:41;5.43;;;1.90;;
13720;SDS011;6932;51.438;5.470;2023-02-24T16:19:57;9.00;;;2.30;;
13720;SDS011;6932;51.438;5.470;2023-02-24T16:22:24;9.17;;;2.23;;
13720;SDS011;6932;51.438;5.470;2023-02-24T16:24:51;9.03;;;2.33;;
13720;SDS011;6932;51.438;5.470;2023-02-24T16:27:17;7.23;;;2.10;;
13720;SDS011;6932;51.438;5.470;2023-02-24T16:29:46;6.50;;;1.90;;
13720;SDS011;6932;51.438;5.470;2023-02-24T16:32:13;7.87;;;2.33;;
13720;SDS011;6932;51.438;5.470;2023-02-24T16:34:40;6.87;;;2.03;;
13720;SDS011;6932;51.438;5.470;2023-02-24T16:37:16;6.50;;;2.17;;
13720;SDS011;6932;51.438;5.470;2023-02-24T16:39:45;7.73;;;2.30;;
13720;SDS011;6932;51.438;5.470;2023-02-24T16:42:13;8.10;;;2.23;;
13720;SDS011;6932;51.438;5.470;2023-02-24T16:44:41;9.57;;;2.10;;
13720;SDS011;6932;51.438;5.470;2023-02-24T16:47:07;7.73;;;2.00;;
13720;SDS011;6932;51.438;5.470;2023-02-24T16:49:40;6.03;;;2.00;;
13720;SDS011;6932;51.438;5.470;2023-02-24T16:52:06;5.93;;;1.83;;
13720;SDS011;6932;51.438;5.470;2023-02-24T16:54:32;6.27;;;1.80;;
13720;SDS011;6932;51.438;5.470;2023-02-24T16:56:57;4.27;;;1.57;;
13720;SDS011;6932;51.438;5.470;2023-02-24T16:59:23;5.00;;;1.80;;
13720;SDS011;6932;51.438;5.470;2023-02-24T17:01:52;4.90;;;1.60;;
13720;SDS011;6932;51.438;5.470;2023-02-24T17:04:19;6.63;;;1.53;;
13720;SDS011;6932;51.438;5.470;2023-02-24T17:06:48;4.23;;;1.67;;
13720;SDS011;6932;51.438;5.470;2023-02-24T17:09:15;5.93;;;1.60;;
13720;SDS011;6932;51.438;5.470;2023-02-24T17:11:42;4.33;;;1.53;;
13720;SDS011;6932;51.438;5.470;2023-02-24T17:14:18;4.87;;;1.60;;
13720;SDS011;6932;51.438;5.470;2023-02-24T17:16:45;7.37;;;1.70;;
13720;SDS011;6932;51.438;5.470;2023-02-24T17:19:12;7.10;;;1.90;;
13720;SDS011;6932;51.438;5.470;2023-02-24T17:21:40;6.70;;;2.10;;
13720;SDS011;6932;51.438;5.470;2023-02-24T17:24:12;4.57;;;1.40;;
13720;SDS011;6932;51.438;5.470;2023-02-24T17:26:43;6.33;;;1.80;;
13720;SDS011;6932;51.438;5.470;2023-02-24T17:29:16;7.70;;;1.60;;
13720;SDS011;6932;51.438;5.470;2023-02-24T17:31:42;6.87;;;1.70;;
13720;SDS011;6932;51.438;5.470;2023-02-24T17:34:07;5.93;;;1.60;;
13720;SDS011;6932;51.438;5.470;2023-02-24T17:36:34;6.27;;;1.60;;
13720;SDS011;6932;51.438;5.470;2023-02-24T17:38:59;7.40;;;1.87;;
13720;SDS011;6932;51.438;5.470;2023-02-24T17:41:25;7.67;;;1.60;;
13720;SDS011;6932;51.438;5.470;2023-02-24T17:43:51;6.93;;;1.63;;
13720;SDS011;6932;51.438;5.470;2023-02-24T17:46:18;3.83;;;1.50;;
13720;SDS011;6932;51.438;5.470;2023-02-24T17:48:45;5.37;;;1.70;;
13720;SDS011;6932;51.438;5.470;2023-02-24T17:51:11;7.50;;;1.87;;
13720;SDS011;6932;51.438;5.470;2023-02-24T17:53:42;7.60;;;1.83;;
13720;SDS011;6932;51.438;5.470;2023-02-24T17:56:08;5.17;;;1.83;;
13720;SDS011;6932;51.438;5.470;2023-02-24T17:58:35;5.47;;;1.90;;
13720;SDS011;6932;51.438;5.470;2023-02-24T18:01:02;5.87;;;1.60;;
13720;SDS011;6932;51.438;5.470;2023-02-24T18:03:30;5.83;;;1.97;;
13720;SDS011;6932;51.438;5.470;2023-02-24T18:06:17;4.20;;;1.30;;
13720;SDS011;6932;51.438;5.470;2023-02-24T18:08:42;6.03;;;1.57;;
13720;SDS011;6932;51.438;5.470;2023-02-24T18:11:10;5.20;;;1.57;;
13720;SDS011;6932;51.438;5.470;2023-02-24T18:13:43;2.50;;;0.97;;
13720;SDS011;6932;51.438;5.470;2023-02-24T18:16:10;5.33;;;1.80;;
13720;SDS011;6932;51.438;5.470;2023-02-24T18:18:38;2.17;;;1.27;;